createdAt,value
2018-12-20T00:01:43.400Z,5.52
2018-12-20T00:04:12.832Z,5.50
2018-12-20T00:06:42.274Z,5.44
2018-12-20T00:09:12.045Z,5.49
2018-12-20T00:11:41.985Z,5.53
2018-12-20T00:14:12.290Z,5.44
2018-12-20T00:16:44.472Z,5.47
2018-12-20T00:19:15.284Z,5.48
2018-12-20T00:21:44.788Z,5.45
2018-12-20T00:24:14.171Z,5.41
2018-12-20T00:26:43.595Z,5.40
2018-12-20T00:29:13.371Z,5.36
2018-12-20T00:31:42.953Z,5.39
2018-12-20T00:34:12.412Z,5.34
2018-12-20T00:36:41.839Z,5.32
2018-12-20T00:39:11.259Z,5.35
2018-12-20T00:41:40.711Z,5.33
2018-12-20T00:44:10.425Z,5.26
2018-12-20T00:46:39.925Z,5.16
2018-12-20T00:49:09.445Z,5.19
2018-12-20T00:51:38.773Z,5.20
2018-12-20T00:54:08.136Z,5.18
2018-12-20T00:56:38.700Z,5.23
2018-12-20T00:59:10.577Z,5.24
2018-12-20T01:01:42.167Z,5.27
2018-12-20T01:04:11.651Z,5.20
2018-12-20T01:06:42.223Z,5.21
2018-12-20T01:09:14.167Z,5.16
2018-12-20T01:11:43.901Z,5.19
2018-12-20T01:14:13.360Z,5.18
2018-12-20T01:16:42.943Z,5.20
2018-12-20T01:19:12.916Z,5.20
2018-12-20T01:21:42.242Z,5.22
2018-12-20T01:24:13.765Z,5.26
2018-12-20T01:26:46.991Z,5.32
2018-12-20T01:29:21.907Z,5.35
2018-12-20T01:31:55.430Z,5.29
2018-12-20T01:34:25.776Z,5.27
2018-12-20T01:36:55.124Z,5.31
2018-12-20T01:39:24.635Z,5.33
2018-12-20T01:41:54.003Z,5.42
2018-12-20T01:44:23.505Z,5.39
2018-12-20T01:46:52.788Z,5.38
2018-12-20T01:49:22.340Z,5.27
2018-12-20T01:51:54.217Z,5.25
2018-12-20T01:54:23.778Z,5.27
2018-12-20T01:56:53.208Z,5.28
2018-12-20T01:59:22.656Z,5.28
2018-12-20T02:01:52.522Z,5.28
2018-12-20T02:04:22.139Z,5.30
2018-12-20T02:06:51.753Z,5.33
2018-12-20T02:09:21.129Z,5.28
2018-12-20T02:11:50.496Z,5.36
2018-12-20T02:14:19.775Z,5.35
2018-12-20T02:16:49.410Z,5.37
2018-12-20T02:19:19.354Z,5.36
2018-12-20T02:21:53.157Z,5.33
2018-12-20T02:24:24.583Z,5.37
2018-12-20T02:26:54.018Z,5.27
2018-12-20T02:29:24.472Z,5.26
2018-12-20T02:31:56.918Z,5.25
2018-12-20T02:34:26.841Z,5.27
2018-12-20T02:36:56.694Z,5.25
2018-12-20T02:39:26.315Z,5.19
2018-12-20T02:41:56.203Z,5.16
2018-12-20T02:44:25.899Z,5.14
2018-12-20T02:46:55.282Z,5.11
2018-12-20T02:49:24.508Z,5.09
2018-12-20T02:51:53.933Z,5.03
2018-12-20T02:54:23.535Z,5.02
2018-12-20T02:56:53.046Z,5.05
2018-12-20T02:59:24.231Z,5.06
2018-12-20T03:01:53.679Z,5.07
2018-12-20T03:04:22.975Z,4.99
2018-12-20T03:06:52.785Z,4.99
2018-12-20T03:09:22.325Z,4.99
2018-12-20T03:11:51.734Z,4.97
2018-12-20T03:14:21.351Z,5.02
2018-12-20T03:16:50.802Z,5.04
2018-12-20T03:19:20.197Z,5.07
2018-12-20T03:21:49.824Z,5.11
2018-12-20T03:24:19.225Z,5.12
2018-12-20T03:26:48.507Z,5.17
2018-12-20T03:29:17.997Z,5.17
2018-12-20T03:31:47.334Z,5.14
2018-12-20T03:34:17.138Z,5.12
2018-12-20T03:36:46.846Z,5.11
2018-12-20T03:39:16.466Z,5.07
2018-12-20T03:41:45.794Z,5.08
2018-12-20T03:44:15.140Z,5.05
2018-12-20T03:46:44.802Z,5.01
2018-12-20T03:49:14.189Z,4.97
2018-12-20T03:51:43.534Z,4.92
2018-12-20T03:54:12.760Z,4.95
2018-12-20T03:56:42.080Z,4.97
2018-12-20T03:59:11.571Z,4.98
2018-12-20T04:01:40.887Z,4.91
2018-12-20T04:04:10.385Z,4.82
2018-12-20T04:06:40.104Z,4.78
2018-12-20T04:09:09.533Z,4.73
2018-12-20T04:11:38.947Z,4.76
2018-12-20T04:14:08.451Z,4.76
2018-12-20T04:16:38.041Z,4.83
2018-12-20T04:19:07.804Z,4.79
2018-12-20T04:21:37.180Z,4.79
2018-12-20T04:24:06.513Z,4.82
2018-12-20T04:26:36.370Z,4.83
2018-12-20T04:29:06.193Z,4.84
2018-12-20T04:31:35.479Z,4.84
2018-12-20T04:34:05.074Z,4.89
2018-12-20T04:36:34.615Z,4.87
2018-12-20T04:39:06.720Z,4.91
2018-12-20T04:41:36.531Z,4.97
2018-12-20T04:44:06.124Z,4.97
2018-12-20T04:46:35.698Z,4.98
2018-12-20T04:49:05.390Z,5.09
2018-12-20T04:51:34.842Z,5.15
2018-12-20T04:54:04.156Z,5.20
2018-12-20T04:56:33.587Z,5.20
2018-12-20T04:59:03.097Z,5.08
2018-12-20T05:01:32.494Z,4.96
2018-12-20T05:04:02.048Z,4.83
2018-12-20T05:06:31.403Z,4.80
2018-12-20T05:09:00.847Z,4.83
2018-12-20T05:11:30.585Z,4.83
2018-12-20T05:14:00.205Z,4.86
2018-12-20T05:16:29.790Z,4.87
2018-12-20T05:18:59.240Z,4.81
2018-12-20T05:21:29.383Z,4.87
2018-12-20T05:23:58.891Z,4.89
2018-12-20T05:26:28.483Z,4.97
2018-12-20T05:28:57.928Z,4.96
2018-12-20T05:31:27.195Z,4.98
2018-12-20T05:33:56.851Z,4.94
2018-12-20T05:36:26.326Z,4.93
2018-12-20T05:38:55.843Z,4.97
2018-12-20T05:41:25.295Z,4.97
2018-12-20T05:43:54.904Z,4.96
2018-12-20T05:46:24.996Z,4.98
2018-12-20T05:48:54.513Z,5.00
2018-12-20T05:51:24.007Z,5.00
2018-12-20T05:53:53.421Z,4.98
2018-12-20T05:56:22.809Z,4.98
2018-12-20T05:58:52.310Z,5.01
2018-12-20T06:01:21.587Z,4.99
2018-12-20T06:03:51.168Z,4.99
2018-12-20T06:06:20.573Z,4.97
2018-12-20T06:08:49.944Z,4.93
2018-12-20T06:11:19.861Z,4.93
2018-12-20T06:13:49.426Z,4.96
2018-12-20T06:16:18.670Z,4.95
2018-12-20T06:18:48.032Z,4.89
2018-12-20T06:21:17.338Z,4.88
2018-12-20T06:23:46.623Z,4.86
2018-12-20T06:26:16.906Z,4.89
2018-12-20T06:28:46.296Z,4.90
2018-12-20T06:31:15.771Z,4.89
2018-12-20T06:33:45.603Z,4.90
2018-12-20T06:36:14.882Z,4.85
2018-12-20T06:38:44.214Z,4.89
2018-12-20T06:41:14.916Z,4.96
2018-12-20T06:43:44.223Z,4.98
2018-12-20T06:46:20.864Z,4.95
2018-12-20T06:48:45.411Z,4.89
2018-12-20T06:51:14.883Z,4.87
2018-12-20T06:53:44.135Z,4.88
2018-12-20T06:56:13.842Z,4.91
2018-12-20T06:58:43.241Z,4.85
2018-12-20T07:01:12.647Z,4.82
2018-12-20T07:03:42.048Z,4.83
2018-12-20T07:06:11.631Z,4.84
2018-12-20T07:08:41.352Z,4.84
2018-12-20T07:11:10.766Z,4.88
2018-12-20T07:13:40.304Z,4.88
2018-12-20T07:16:09.665Z,4.88
2018-12-20T07:18:39.400Z,4.94
2018-12-20T07:21:08.760Z,4.94
2018-12-20T07:23:38.068Z,4.94
2018-12-20T07:26:07.548Z,4.93
2018-12-20T07:28:36.833Z,4.93
2018-12-20T07:31:06.107Z,4.90
2018-12-20T07:33:35.512Z,4.87
2018-12-20T07:36:04.812Z,4.81
2018-12-20T07:38:34.257Z,4.82
2018-12-20T07:41:03.770Z,4.84
2018-12-20T07:43:34.158Z,4.86
2018-12-20T07:46:03.553Z,4.85
2018-12-20T07:48:33.591Z,4.86
2018-12-20T07:51:03.647Z,4.87
2018-12-20T07:53:33.147Z,4.89
2018-12-20T07:56:03.419Z,4.91
2018-12-20T07:58:32.823Z,4.96
2018-12-20T08:01:02.584Z,5.06
2018-12-20T08:03:35.888Z,5.07
2018-12-20T08:06:05.423Z,5.14
2018-12-20T08:08:35.026Z,5.17
2018-12-20T08:11:04.808Z,5.15
2018-12-20T08:13:34.114Z,5.16
2018-12-20T08:16:04.723Z,5.10
2018-12-20T08:18:34.083Z,5.11
2018-12-20T08:21:03.536Z,5.04
2018-12-20T08:23:33.222Z,5.06
2018-12-20T08:26:02.769Z,5.15
2018-12-20T08:28:32.312Z,5.18
2018-12-20T08:31:03.046Z,5.21
2018-12-20T08:33:32.394Z,5.23
2018-12-20T08:36:01.685Z,5.24
2018-12-20T08:38:31.024Z,5.23
2018-12-20T08:41:00.514Z,5.27
2018-12-20T08:43:30.129Z,5.31
2018-12-20T08:45:59.625Z,5.33
2018-12-20T08:48:28.939Z,5.35
2018-12-20T08:50:59.238Z,5.28
2018-12-20T08:53:28.838Z,5.33
2018-12-20T08:55:58.938Z,5.28
2018-12-20T08:58:29.386Z,5.28
2018-12-20T09:00:58.748Z,5.36
2018-12-20T09:03:29.573Z,5.42
2018-12-20T09:05:59.050Z,5.50
2018-12-20T09:08:28.353Z,5.53
2018-12-20T09:10:58.381Z,5.56
2018-12-20T09:13:27.691Z,5.65
2018-12-20T09:15:57.175Z,5.62
2018-12-20T09:18:27.208Z,5.65
2018-12-20T09:20:56.546Z,5.71
2018-12-20T09:23:26.279Z,5.75
2018-12-20T09:25:56.148Z,5.74
2018-12-20T09:28:25.830Z,5.69
2018-12-20T09:30:55.466Z,5.77
2018-12-20T09:33:24.838Z,5.89
2018-12-20T09:35:54.277Z,5.90
2018-12-20T09:38:23.605Z,5.93
2018-12-20T09:40:53.159Z,5.93
2018-12-20T09:43:22.512Z,5.82
2018-12-20T09:45:51.825Z,5.78
2018-12-20T09:48:22.872Z,5.78
2018-12-20T09:50:52.179Z,5.77
2018-12-20T09:53:21.837Z,5.77
2018-12-20T09:55:51.247Z,5.71
2018-12-20T09:58:20.812Z,5.68
2018-12-20T10:00:50.217Z,5.67
2018-12-20T10:03:19.791Z,5.68
2018-12-20T10:05:49.157Z,5.68
2018-12-20T10:08:18.592Z,5.72
2018-12-20T10:10:47.998Z,5.65
2018-12-20T10:13:17.540Z,5.65
2018-12-20T10:15:48.977Z,5.62
2018-12-20T10:18:19.525Z,5.66
2018-12-20T10:20:48.971Z,5.63
2018-12-20T10:23:18.244Z,5.67
2018-12-20T10:25:47.852Z,5.64
2018-12-20T10:28:17.332Z,5.64
2018-12-20T10:30:46.639Z,5.69
2018-12-20T10:33:17.715Z,5.69
2018-12-20T10:35:47.385Z,5.75
2018-12-20T10:38:16.913Z,5.82
2018-12-20T10:40:47.206Z,5.78
2018-12-20T10:43:18.658Z,5.75
2018-12-20T10:45:48.389Z,5.82
2018-12-20T10:48:18.952Z,5.86
2018-12-20T10:50:48.259Z,5.89
2018-12-20T10:53:17.955Z,5.90
2018-12-20T10:55:48.520Z,5.92
2018-12-20T10:58:17.966Z,5.90
2018-12-20T11:00:53.160Z,5.94
2018-12-20T11:03:30.083Z,5.95
2018-12-20T11:06:04.343Z,5.90
2018-12-20T11:08:35.666Z,5.91
2018-12-20T11:11:09.998Z,5.89
2018-12-20T11:13:39.370Z,5.82
2018-12-20T11:16:08.745Z,5.79
2018-12-20T11:18:38.892Z,5.77
2018-12-20T11:21:08.177Z,5.79
2018-12-20T11:23:37.415Z,5.86
2018-12-20T11:26:06.915Z,5.98
2018-12-20T11:28:36.182Z,5.96
2018-12-20T11:31:05.488Z,5.95
2018-12-20T11:33:34.864Z,6.02
2018-12-20T11:36:04.282Z,6.09
2018-12-20T11:38:33.557Z,6.14
2018-12-20T11:41:03.354Z,6.18
2018-12-20T11:43:32.895Z,6.26
2018-12-20T11:46:02.193Z,6.31
2018-12-20T11:48:31.850Z,6.32
2018-12-20T11:51:01.265Z,6.34
2018-12-20T12:00:36.938Z,6.20
2018-12-20T12:03:06.709Z,6.22
2018-12-20T12:05:35.992Z,6.24
2018-12-20T12:08:05.620Z,6.25
2018-12-20T12:10:34.949Z,6.29
2018-12-20T12:13:05.268Z,6.32
2018-12-20T12:15:35.434Z,6.35
2018-12-20T12:18:11.202Z,6.39
2018-12-20T12:20:41.392Z,6.41
2018-12-20T12:23:10.813Z,6.49
2018-12-20T12:25:40.293Z,6.51
2018-12-20T12:28:09.920Z,6.51
2018-12-20T12:30:41.244Z,6.54
2018-12-20T12:33:10.651Z,6.60
2018-12-20T12:35:39.926Z,6.61
2018-12-20T12:38:09.238Z,6.61
2018-12-20T12:40:38.607Z,6.55
2018-12-20T12:43:07.932Z,6.54
2018-12-20T12:45:37.250Z,6.60
2018-12-20T12:48:08.383Z,6.65
2018-12-20T12:50:37.693Z,6.65
2018-12-20T12:53:07.040Z,6.60
2018-12-20T12:55:36.944Z,6.61
2018-12-20T12:58:06.261Z,6.63
2018-12-20T13:00:35.559Z,6.62
2018-12-20T13:03:05.067Z,6.66
2018-12-20T13:05:36.348Z,6.62
2018-12-20T13:08:05.731Z,6.65
2018-12-20T13:10:35.093Z,6.61
2018-12-20T13:13:04.360Z,6.56
2018-12-20T13:15:35.840Z,6.57
2018-12-20T13:18:13.589Z,6.61
2018-12-20T13:20:36.477Z,6.60
2018-12-20T13:23:08.187Z,6.58
2018-12-20T13:25:37.946Z,6.58
2018-12-20T13:28:07.341Z,6.61
2018-12-20T13:30:36.822Z,6.60
2018-12-20T13:33:06.111Z,6.55
2018-12-20T13:35:35.467Z,6.55
2018-12-20T13:38:05.045Z,6.58
2018-12-20T13:40:38.627Z,6.64
2018-12-20T13:43:09.033Z,6.66
2018-12-20T13:45:38.344Z,6.69
2018-12-20T13:48:08.106Z,6.73
2018-12-20T13:50:37.495Z,6.75
2018-12-20T13:53:06.737Z,6.72
2018-12-20T13:55:36.178Z,6.75
2018-12-20T13:58:05.463Z,6.73
2018-12-20T14:00:34.838Z,6.71
2018-12-20T14:03:04.242Z,6.66
2018-12-20T14:05:33.689Z,6.69
2018-12-20T14:08:03.449Z,6.70
2018-12-20T14:10:32.706Z,6.63
2018-12-20T14:13:02.365Z,6.58
2018-12-20T14:15:31.764Z,6.58
2018-12-20T14:18:01.193Z,6.62
2018-12-20T14:20:30.682Z,6.68
2018-12-20T14:23:00.259Z,6.64
2018-12-20T14:25:29.911Z,6.69
2018-12-20T14:27:59.395Z,6.65
2018-12-20T14:30:28.774Z,6.67
2018-12-20T14:32:58.124Z,6.71
2018-12-20T14:35:27.564Z,6.70
2018-12-20T14:37:57.036Z,6.74
2018-12-20T14:40:26.305Z,6.79
2018-12-20T14:42:55.904Z,6.74
2018-12-20T14:45:25.308Z,6.68
2018-12-20T14:47:54.641Z,6.69
2018-12-20T14:50:24.048Z,6.71
2018-12-20T14:52:53.888Z,6.74
2018-12-20T14:55:25.537Z,6.70
2018-12-20T14:57:55.376Z,6.64
2018-12-20T15:00:24.737Z,6.65
2018-12-20T15:02:56.404Z,6.64
2018-12-20T15:05:26.872Z,6.63
2018-12-20T15:07:56.233Z,6.62
2018-12-20T15:10:25.531Z,6.61
2018-12-20T15:12:55.500Z,6.63
2018-12-20T15:15:24.928Z,6.61
2018-12-20T15:17:54.343Z,6.62
2018-12-20T15:20:23.821Z,6.67
2018-12-20T15:22:53.258Z,6.68
2018-12-20T15:25:22.712Z,6.69
2018-12-20T15:27:52.132Z,6.65
2018-12-20T15:30:21.606Z,6.63
2018-12-20T15:32:50.891Z,6.68
2018-12-20T15:35:20.259Z,6.70
2018-12-20T15:37:49.544Z,6.72
2018-12-20T15:40:18.851Z,6.73
2018-12-20T15:42:48.441Z,6.75
2018-12-20T15:45:17.833Z,6.75
2018-12-20T15:47:47.135Z,6.74
2018-12-20T15:50:16.973Z,6.81
2018-12-20T15:52:46.389Z,6.85
2018-12-20T15:55:15.769Z,6.88
2018-12-20T15:57:45.128Z,6.87
2018-12-20T16:00:14.379Z,6.87
2018-12-20T16:02:43.871Z,6.85
2018-12-20T16:05:13.170Z,6.89
2018-12-20T16:07:42.649Z,6.89
2018-12-20T16:10:11.936Z,6.88
2018-12-20T16:12:41.582Z,6.95
2018-12-20T16:15:11.651Z,6.87
2018-12-20T16:17:41.166Z,6.83
2018-12-20T16:20:10.618Z,6.82
2018-12-20T16:22:39.901Z,6.81
2018-12-20T16:25:09.482Z,6.91
2018-12-20T16:27:39.549Z,6.90
2018-12-20T16:30:10.897Z,6.94
2018-12-20T16:32:40.265Z,6.93
2018-12-20T16:35:09.770Z,6.92
2018-12-20T16:37:39.299Z,6.90
2018-12-20T16:40:09.311Z,6.83
2018-12-20T16:42:38.534Z,6.82
2018-12-20T16:45:08.528Z,6.81
2018-12-20T16:47:38.357Z,6.78
2018-12-20T16:50:09.554Z,6.75
2018-12-20T16:52:39.037Z,6.76
2018-12-20T16:55:08.801Z,6.72
2018-12-20T16:57:38.143Z,6.71
2018-12-20T17:00:09.553Z,6.74
2018-12-20T17:02:39.092Z,6.73
2018-12-20T17:05:08.438Z,6.72
2018-12-20T17:07:38.246Z,6.70
2018-12-20T17:10:09.128Z,6.63
2018-12-20T17:12:38.561Z,6.58
2018-12-20T17:15:08.115Z,6.56
2018-12-20T17:17:37.307Z,6.51
2018-12-20T17:20:07.799Z,6.57
2018-12-20T17:22:38.118Z,6.58
2018-12-20T17:25:07.599Z,6.55
2018-12-20T17:27:36.927Z,6.57
2018-12-20T17:30:08.372Z,6.64
2018-12-20T17:32:37.649Z,6.64
2018-12-20T17:35:07.222Z,6.65
2018-12-20T17:37:36.605Z,6.66
2018-12-20T17:40:06.872Z,6.64
2018-12-20T17:42:36.165Z,6.68
2018-12-20T17:45:07.635Z,6.66
2018-12-20T17:47:37.049Z,6.66
2018-12-20T17:50:07.404Z,6.60
2018-12-20T17:52:36.827Z,6.58
2018-12-20T17:55:06.540Z,6.57
2018-12-20T17:57:35.965Z,6.56
2018-12-20T18:00:09.340Z,6.56
2018-12-20T18:02:38.788Z,6.58
2018-12-20T18:05:08.349Z,6.50
2018-12-20T18:07:38.313Z,6.46
2018-12-20T18:10:11.706Z,6.46
2018-12-20T18:12:41.085Z,6.40
2018-12-20T18:15:12.591Z,6.44
2018-12-20T18:17:42.050Z,6.44
2018-12-20T18:20:11.367Z,6.49
2018-12-20T18:22:41.215Z,6.47
2018-12-20T18:25:10.463Z,6.50
2018-12-20T18:27:39.852Z,6.48
2018-12-20T18:30:11.917Z,6.48
2018-12-20T18:32:41.291Z,6.51
2018-12-20T18:35:10.519Z,6.50
2018-12-20T18:37:39.841Z,6.51
2018-12-20T18:40:10.105Z,6.54
2018-12-20T18:42:39.446Z,6.63
2018-12-20T18:45:09.544Z,6.62
2018-12-20T18:47:38.938Z,6.59
2018-12-20T18:50:13.131Z,6.55
2018-12-20T18:52:42.517Z,6.56
2018-12-20T18:55:12.762Z,6.58
2018-12-20T18:57:42.183Z,6.53
2018-12-20T19:00:11.527Z,6.50
2018-12-20T19:02:40.873Z,6.49
2018-12-20T19:05:10.303Z,6.49
2018-12-20T19:07:39.608Z,6.47
2018-12-20T19:10:09.253Z,6.44
2018-12-20T19:12:38.525Z,6.42
2018-12-20T19:15:09.176Z,6.40
2018-12-20T19:17:38.545Z,6.44
2018-12-20T19:20:15.989Z,6.43
2018-12-20T19:22:40.975Z,6.47
2018-12-20T19:25:10.200Z,6.49
2018-12-20T19:27:39.435Z,6.46
2018-12-20T19:30:10.477Z,6.45
2018-12-20T19:32:39.787Z,6.43
2018-12-20T19:35:09.173Z,6.43
2018-12-20T19:37:38.445Z,6.44
2018-12-20T19:40:09.900Z,6.45
2018-12-20T19:42:39.343Z,6.45
2018-12-20T19:45:09.327Z,6.45
2018-12-20T19:47:38.620Z,6.44
2018-12-20T19:50:09.903Z,6.46
2018-12-20T19:52:39.324Z,6.42
2018-12-20T19:55:08.565Z,6.39
2018-12-20T19:57:37.834Z,6.42
2018-12-20T20:00:11.336Z,6.42
2018-12-20T20:02:40.605Z,6.42
2018-12-20T20:05:09.973Z,6.42
2018-12-20T20:07:39.388Z,6.42
2018-12-20T20:10:10.778Z,6.43
2018-12-20T20:12:40.093Z,6.42
2018-12-20T20:15:16.372Z,6.44
2018-12-20T20:17:44.362Z,6.45
2018-12-20T20:20:15.096Z,6.44
2018-12-20T20:22:44.362Z,6.43
2018-12-20T20:25:13.830Z,6.44
2018-12-20T20:27:45.447Z,6.44
2018-12-20T20:30:15.854Z,6.48
2018-12-20T20:32:45.951Z,6.49
2018-12-20T20:35:15.197Z,6.49
2018-12-20T20:37:44.768Z,6.54
2018-12-20T20:40:14.070Z,6.51
2018-12-20T20:42:43.348Z,6.45
2018-12-20T20:45:12.982Z,6.45
2018-12-20T20:47:43.340Z,6.42
2018-12-20T20:50:12.715Z,6.36
2018-12-20T20:52:42.068Z,6.35
2018-12-20T20:55:11.719Z,6.35
2018-12-20T20:57:40.955Z,6.33
2018-12-20T21:00:12.564Z,6.30
2018-12-20T21:02:42.063Z,6.33
2018-12-20T21:05:12.334Z,6.34
2018-12-20T21:07:41.864Z,6.34
2018-12-20T21:10:12.220Z,6.34
2018-12-20T21:12:41.555Z,6.35
2018-12-20T21:15:12.151Z,6.32
2018-12-20T21:17:42.618Z,6.37
2018-12-20T21:20:13.627Z,6.39
2018-12-20T21:22:42.999Z,6.42
2018-12-20T21:25:12.347Z,6.44
2018-12-20T21:27:41.809Z,6.45
2018-12-20T21:30:11.094Z,6.51
2018-12-20T21:32:40.333Z,6.44
2018-12-20T21:35:09.790Z,6.43
2018-12-20T21:37:39.205Z,6.43
2018-12-20T21:40:08.680Z,6.45
2018-12-20T21:42:38.117Z,6.47
2018-12-20T21:45:09.297Z,6.49
2018-12-20T21:47:39.767Z,6.53
2018-12-20T21:50:11.073Z,6.57
2018-12-20T21:52:40.371Z,6.58
2018-12-20T21:55:10.454Z,6.62
2018-12-20T21:57:40.861Z,6.64
2018-12-20T22:00:11.071Z,6.63
2018-12-20T22:02:40.303Z,6.63
2018-12-20T22:05:09.728Z,6.69
2018-12-20T22:07:39.414Z,6.64
2018-12-20T22:10:09.158Z,6.68
2018-12-20T22:12:39.555Z,6.68
2018-12-20T22:15:09.017Z,6.71
2018-12-20T22:17:38.429Z,6.73
2018-12-20T22:20:08.088Z,6.71
2018-12-20T22:22:37.423Z,6.72
2018-12-20T22:25:07.760Z,6.71
2018-12-20T22:27:37.180Z,6.69
2018-12-20T22:30:08.717Z,6.70
2018-12-20T22:32:38.053Z,6.69
2018-12-20T22:35:07.689Z,6.69
2018-12-20T22:37:37.233Z,6.71
2018-12-20T22:40:09.009Z,6.72
2018-12-20T22:42:38.437Z,6.73
2018-12-20T22:45:09.128Z,6.75
2018-12-20T22:47:38.605Z,6.76
2018-12-20T22:50:10.057Z,6.77
2018-12-20T22:52:39.489Z,6.81
2018-12-20T22:55:09.515Z,6.79
2018-12-20T22:57:38.816Z,6.79
2018-12-20T23:00:10.110Z,6.82
2018-12-20T23:02:39.621Z,6.81
2018-12-20T23:05:08.934Z,6.81
2018-12-20T23:07:38.312Z,6.82
2018-12-20T23:10:08.210Z,6.84
2018-12-20T23:12:37.499Z,6.86
2018-12-20T23:15:07.010Z,6.89
2018-12-20T23:17:36.840Z,6.93
2018-12-20T23:20:07.318Z,6.92
2018-12-20T23:22:36.584Z,6.98
2018-12-20T23:25:07.144Z,6.96
2018-12-20T23:27:36.541Z,6.96
2018-12-20T23:30:06.005Z,6.97
2018-12-20T23:32:35.357Z,6.96
2018-12-20T23:35:04.995Z,6.97
2018-12-20T23:37:34.314Z,6.94
2018-12-20T23:40:04.298Z,6.94
2018-12-20T23:42:34.103Z,6.98
2018-12-20T23:45:08.966Z,6.98
2018-12-20T23:47:38.576Z,6.94
2018-12-20T23:50:07.985Z,6.98
2018-12-20T23:52:38.376Z,7.00
2018-12-20T23:55:08.020Z,6.97
2018-12-20T23:57:37.418Z,6.97
